Comandante Luis Piedra Buena, Argentina
Current Conditions -  °F | °C
As of 7:00 AM on Monday 22 Dec 2014 (Local Time) from SAWG Reporting Station
Clear Clear  
Wind Chill:   Ceiling: Unl
Heat Index:   Visibility: 6mi
Dew Point:   Wind: 6mph
Humidity: 57%   Direction: 290°WNW
Pressure: 29.71"   Gusts: NA
Location:  49.98°S, 68.9°W
Report Text: SAWG 221000Z 29005KT CAVOK 09/01 Q1006
Loading
Personal Weather Stations






























Interactive Weather Map New forecast layout! Learn more

10-Day Weather Forecast

Advertisements
Track Severe Weather on mobile